Latest Coastal Weather Observations for Onslow Airport

IDW60701

Issued at 1:22 am WST Tuesday 9 February 2016 (issued every 10 minutes, with the page automatically refreshed every 10 minutes)

About coastal observations | Map of coastal stations | Coastal observations for WA | Marine services | Other Formats
Station Details ID: 005017 Name: ONSLOW AIRPORT Lat: -21.67 Lon: 115.11 Height: 10.5 m
Data from the previous 72 hours. | See also: Recent months at Onslow Airport
Date/Time
WST
Temp

°C
Wind Pressure Rain
since 9am
mm
Weather Cloud Vis
km
Sea
Height
m
Swell
Dir
 
Speed
knots
Gust
knots
hPa Trend Height
m
Period
s
Dir
09/01:00am 26.5 WNW 6 7 1009.7 - 0.0 - - - - - - -
09/12:30am 26.8 W 7 8 1010.0 - 0.0 - - - - - - -
09/12:00am 27.0 WNW 5 6 1010.3 - 0.0 - - - - - - -
 
Date/Time
WST
Temp

°C
Wind Pressure Rain
since 9am
mm
Weather Cloud Vis
km
Sea
Height
m
Swell
Dir
 
Speed
knots
Gust
knots
hPa Trend Height
m
Period
s
Dir
08/11:30pm 26.8 W 5 6 1010.2 - 0.0 - - - - - - -
08/11:00pm 27.3 W 5 7 1010.3 - 0.0 - - - - - - -
08/10:30pm 27.4 W 6 7 1010.2 - 0.0 - - - - - - -
08/10:00pm 28.4 WSW 8 10 1010.2 - 0.0 - - - - - - -
08/09:30pm 27.3 W 5 6 1010.1 - 0.0 - - - - - - -
08/09:00pm 28.2 W 9 11 1009.8 - 0.0 - - - - - - -
08/08:30pm 28.4 WSW 10 12 1009.5 - 0.0 - - - - - - -
08/08:00pm 28.8 WSW 11 15 1009.1 - 0.0 - - - - - - -
08/07:30pm 29.1 W 11 15 1008.6 - 0.0 - - - - - - -
08/07:00pm 29.2 W 13 16 1008.2 - 0.0 - - - - - - -
08/06:30pm 29.7 W 15 19 1008.1 - 0.0 - - - - - - -
08/06:00pm 30.2 W 15 18 1007.8 - 0.0 - - - - - - -
08/05:30pm 30.7 WNW 16 20 1007.6 - 0.0 - - - - - - -
08/05:00pm 31.5 WNW 17 20 1007.3 - 0.0 - - - - - - -
08/04:30pm 32.3 WNW 16 20 1007.3 - 0.0 - - - - - - -
08/04:00pm 32.6 WNW 16 21 1007.3 - 0.0 - - - - - - -
08/03:30pm 32.5 WNW 17 21 1007.5 - 0.0 - - - - - - -
08/03:00pm 32.5 NW 18 22 1007.8 - 0.0 - - - - - - -
08/02:30pm 33.1 NW 18 22 1007.8 - 0.0 - - - - - - -
08/02:00pm 32.7 NW 19 22 1007.9 - 0.0 - - - - - - -
08/01:30pm 33.4 NW 17 21 1008.2 - 0.0 - - - - - - -
08/01:00pm 34.9 NW 14 17 1008.4 - 0.0 - - - - - - -
08/12:30pm 35.8 NW 13 17 1008.8 - 0.0 - - - - - - -
08/12:00pm 34.0 NW 15 19 1009.3 - 0.0 - - - - - - -
08/11:30am 33.3 NW 14 20 1009.8 - 0.0 - - - - - - -
08/11:00am 35.6 NW 8 11 1010.0 - 0.0 - - - - - - -
08/10:30am 35.1 NW 8 14 1010.2 - 0.0 - - - - - - -
08/10:00am 36.6 S 5 8 1010.3 - 0.0 - - - - - - -
08/09:30am 35.9 SSE 7 9 1010.3 - 0.0 - - - - - - -
08/09:00am 33.6 SSW 9 11 1010.2 - 0.0 - - - - - - -
08/08:30am 31.7 SSW 7 9 1010.3 - 0.0 - - - - - - -
08/08:00am 29.4 S 7 9 1010.4 - 0.0 - - - - - - -
08/07:30am 29.0 S 7 9 1010.4 - 0.0 - - - - - - -
08/07:00am 27.3 SW 6 7 1009.8 - 0.0 - - - - - - -
08/06:30am 26.2 WNW 6 7 1009.5 - 0.0 - - - - - - -
08/06:00am 26.1 WNW 7 8 1009.5 - 0.0 - - - - - - -
08/05:30am 25.9 NW 6 7 1009.4 - 0.0 - - - - - - -
08/05:00am 25.9 NNW 6 7 1009.1 - 0.0 - - - - - - -
08/04:30am 26.0 NNW 6 7 1009.1 - 0.0 - - - - - - -
08/04:00am 26.1 NNW 5 7 1009.3 - 0.0 - - - - - - -
08/03:30am 25.9 NNW 7 7 1009.4 - 0.0 - - - - - - -
08/03:00am 25.8 NW 5 6 1009.5 - 0.0 - - - - - - -
08/02:30am 26.4 W 6 6 1009.5 - 0.0 - - - - - - -
08/02:00am 26.1 WNW 6 7 1009.8 - 0.0 - - - - - - -
08/01:30am 26.4 NW 4 5 1010.3 - 0.0 - - - - - - -
08/01:00am 26.3 W 5 6 1010.3 - 0.0 - - - - - - -
08/12:30am 26.4 W 6 7 1010.6 - 0.0 - - - - - - -
08/12:00am 26.7 W 5 6 1010.9 - 0.0 - - - - - - -
 
Date/Time
WST
Temp

°C
Wind Pressure Rain
since 9am
mm
Weather Cloud Vis
km
Sea
Height
m
Swell
Dir
 
Speed
knots
Gust
knots
hPa Trend Height
m
Period
s
Dir
07/11:30pm 26.9 W 6 7 1011.1 - 0.0 - - - - - - -
07/11:00pm 27.3 WSW 7 8 1011.3 - 0.0 - - - - - - -
07/10:30pm 27.4 W 8 9 1011.2 - 0.0 - - - - - - -
07/10:00pm 27.6 W 8 10 1010.9 - 0.0 - - - - - - -
07/09:30pm 27.8 W 9 12 1010.7 - 0.0 - - - - - - -
07/09:00pm 28.1 W 12 16 1010.0 - 0.0 - - - - - - -
07/08:30pm 28.0 W 11 14 1009.8 - 0.0 - - - - - - -
07/08:00pm 28.2 W 12 15 1009.6 - 0.0 - - - - - - -
07/07:30pm 28.2 WNW 12 16 1009.1 - 0.0 - - - - - - -
07/07:00pm 28.6 W 15 18 1008.6 - 0.0 - - - - - - -
07/06:30pm 29.4 WNW 16 20 1008.1 - 0.0 - - - - - - -
07/06:00pm 30.0 WNW 16 20 1007.8 - 0.0 - - - - - - -
07/05:30pm 30.3 WNW 18 22 1007.6 - 0.0 - - - - - - -
07/05:00pm 30.9 WNW 17 21 1007.4 - 0.0 - - - - - - -
07/04:30pm 31.4 NW 17 21 1007.3 - 0.0 - - - - - - -
07/04:00pm 31.4 NW 16 20 1007.5 - 0.0 - - - - - - -
07/03:30pm 32.6 NW 17 19 1007.7 - 0.0 - - - - - - -
07/03:00pm 33.3 NW 16 20 1007.8 - 0.0 - - - - - - -
07/02:30pm 33.9 NW 15 18 1008.0 - 0.0 - - - - - - -
07/02:00pm 34.3 NW 15 18 1008.2 - 0.0 - - - - - - -
07/01:30pm 35.1 NW 14 17 1008.6 - 0.0 - - - - - - -
07/01:00pm 36.1 NNW 13 16 1008.9 - 0.0 - - - - - - -
07/12:30pm 35.0 NNW 11 14 1009.1 - 0.0 - - - - - - -
07/12:00pm 35.4 NNW 9 13 1009.4 - 0.0 - - - - - - -
07/11:30am 34.9 N 9 13 1009.6 - 0.0 - - - - - - -
07/11:00am 34.6 N 9 11 1009.7 - 0.0 - - - - - - -
07/10:30am 34.0 NNE 7 10 1010.0 - 0.0 - - - - - - -
07/10:00am 32.3 N 7 10 1010.0 - 0.0 - - - - - - -
07/09:30am 32.4 NNE 6 9 1010.1 - 0.0 - - - - - - -
07/09:00am 31.3 NE 7 9 1010.0 - - - - - - - - -
07/08:30am 30.1 NNW 3 6 1009.8 - - - - - - - - -
07/08:00am 29.0 - - - 1009.4 - - - - - - - - -
07/07:30am 28.4 NNW 7 8 1009.1 - - - - - - - - -
07/07:00am 27.8 N 7 8 1008.7 - - - - - - - - -
07/06:30am 26.4 N 6 8 1008.4 - - - - - - - - -
07/06:00am 26.0 N 7 8 1007.8 - - - - - - - - -
07/05:30am 26.2 NNW 7 9 1007.5 - - - - - - - - -
07/05:00am 26.3 NNW 8 11 1007.3 - - - - - - - - -
07/04:30am 26.4 NNW 9 11 1007.0 - - - - - - - - -
07/04:00am 26.5 NNW 9 13 1007.0 - - - - - - - - -
07/03:30am 26.5 NNW 10 12 1007.0 - - - - - - - - -
07/03:00am 26.5 NW 10 13 1007.0 - - - - - - - - -
07/02:30am 26.6 NW 9 11 1007.2 - - - - - - - - -
07/02:00am 26.5 N 8 11 1007.1 - - - - - - - - -
07/01:30am 26.6 - - - 1007.5 - - - - - - - - -
07/01:00am 26.7 - - - 1007.8 - - - - - - - - -
07/12:30am 26.6 N 7 8 1007.9 - - - - - - - - -
07/12:00am 26.8 NW 7 8 1008.0 - - - - - - - - -
 
Date/Time
WST
Temp

°C
Wind Pressure Rain
since 9am
mm
Weather Cloud Vis
km
Sea
Height
m
Swell
Dir
 
Speed
knots
Gust
knots
hPa Trend Height
m
Period
s
Dir
06/11:30pm 26.7 WNW 7 8 1008.3 - - - - - - - - -
06/11:00pm 26.8 WNW 7 8 1008.4 - - - - - - - - -
06/10:30pm 26.9 NW 8 9 1008.5 - - - - - - - - -
06/10:00pm 27.1 NW 8 11 1008.4 - - - - - - - - -
06/09:30pm 27.2 WNW 8 11 1008.2 - - - - - - - - -
06/09:00pm 27.3 W 7 9 1008.1 - - - - - - - - -
06/08:30pm 27.6 W 12 17 1007.8 - - - - - - - - -
06/07:00pm 28.1 WNW 14 18 1006.6 - 0.0 - - - - - - -
06/06:30pm 29.0 WNW 17 21 1006.2 - 0.0 - - - - - - -
06/06:00pm 30.2 WNW 16 20 1005.8 - 0.0 - - - - - - -
06/05:30pm 30.4 WNW 16 20 1005.7 - 0.0 - - - - - - -
06/05:00pm 31.0 NW 18 22 1005.6 - 0.0 - - - - - - -
06/04:30pm 31.2 NW 18 21 1005.7 - 0.0 - - - - - - -
06/04:00pm 31.8 NW 17 21 1005.9 - 0.0 - - - - - - -
06/03:30pm 32.2 NW 17 20 1006.2 - 0.0 - - - - - - -
06/03:00pm 32.3 NW 16 19 1006.4 - 0.0 - - - - - - -
06/02:30pm 32.6 NW 15 19 1006.8 - 0.0 - - - - - - -
06/02:00pm 33.8 NW 14 17 1007.1 - 0.0 - - - - - - -
06/01:30pm 33.6 NW 12 15 1007.4 - 0.0 - - - - - - -
06/01:00pm 32.7 NW 10 14 1007.8 - 0.0 - - - - - - -
06/12:30pm 33.2 NW 10 13 1008.1 - 0.0 - - - - - - -
06/12:00pm 32.9 NW 9 13 1008.5 - 0.0 - - - - - - -
06/11:30am 34.0 NW 8 13 1008.7 - 0.0 - - - - - - -
06/11:00am 33.2 NW 7 11 1008.9 - 0.0 - - - - - - -
06/10:30am 32.9 NW 7 10 1009.2 - 0.0 - - - - - - -
06/10:00am 32.4 NW 6 9 1009.3 - 0.0 - - - - - - -
06/09:30am 31.7 NW 8 10 1009.4 - 0.0 - - - - - - -
06/09:00am 30.8 WNW 9 11 1009.4 - 0.0 - - - - - - -
06/08:30am 31.0 NW 8 11 1009.0 - 0.0 - - - - - - -
06/08:00am 30.5 WNW 7 9 1008.7 - 0.0 - - - - - - -
06/07:30am 29.8 WNW 6 8 1008.6 - 0.0 - - - - - - -
06/07:00am 28.0 NW 6 7 1008.5 - 0.0 - - - - - - -
06/06:30am 26.6 W 7 8 1007.8 - 0.0 - - - - - - -
06/06:00am 26.0 WNW 7 8 1007.3 - 0.0 - - - - - - -
06/05:30am 26.0 WNW 8 9 1007.3 - 0.0 - - - - - - -
06/05:00am 26.3 WNW 7 9 1007.0 - 0.0 - - - - - - -
06/04:30am 26.7 NNW 6 9 1007.0 - 0.0 - - - - - - -
06/04:00am 27.4 NW 7 9 1006.7 - 0.0 - - - - - - -
06/03:30am 27.3 WNW 7 8 1006.5 - 0.0 - - - - - - -
06/03:00am 27.4 WNW 6 8 1006.7 - 0.0 - - - - - - -
06/02:30am 27.5 W 8 9 1006.7 - 0.0 - - - - - - -
06/02:00am 27.7 W 10 13 1006.8 - 0.0 - - - - - - -
06/01:30am 27.7 WNW 10 12 1007.1 - 0.0 - - - - - - -

Other Formats:

Comma delimited format used in spreadsheet applications
http://www.bom.gov.au/fwo/IDW60701/IDW60701.95305.axf

JavaScript Object Notation format (JSON) in row-major order
http://www.bom.gov.au/fwo/IDW60701/IDW60701.95305.json